Time;durP1;ratioP1;P1;durP2;ratioP2;P2;SDS_P1;SDS_P2;PMS_P1;PMS_P2;Temp;Humidity;BMP_temperature;BMP_pressure;BME280_temperature;BME280_humidity;BME280_pressure;Samples;Min_cycle;Max_cycle;Signal;HPM_P1;HPM_P2
2023/03/27 00:00:41;;;;;;;1.70;1.30;;;;;;;6.28;100.00;97703.44;5009866;28;20053;-79
2023/03/27 00:03:11;;;;;;;1.63;1.17;;;;;;;6.26;100.00;97716.28;5011064;28;20057;-78
2023/03/27 00:05:37;;;;;;;1.92;1.20;;;;;;;6.35;100.00;97727.66;5022862;28;20024;-78
2023/03/27 00:08:04;;;;;;;1.35;1.05;;;;;;;6.20;100.00;97714.38;5012767;28;20030;-77
2023/03/27 00:10:30;;;;;;;1.75;1.45;;;;;;;6.22;100.00;97717.69;5040496;28;20379;-78
2023/03/27 00:12:56;;;;;;;1.80;1.33;;;;;;;6.17;100.00;97717.47;5033127;28;20083;-78
2023/03/27 00:15:21;;;;;;;2.72;1.25;;;;;;;6.02;100.00;97687.25;5029559;28;20048;-77
2023/03/27 00:17:49;;;;;;;1.98;1.35;;;;;;;6.20;100.00;97735.84;5014004;28;20018;-78
2023/03/27 00:20:16;;;;;;;2.22;1.15;;;;;;;6.25;100.00;97738.75;5030888;28;20044;-78
2023/03/27 00:22:42;;;;;;;1.92;1.45;;;;;;;6.21;100.00;97734.84;5019026;28;20036;-77
2023/03/27 00:25:09;;;;;;;1.45;1.20;;;;;;;6.06;100.00;97735.00;5012335;28;20025;-77
2023/03/27 00:27:35;;;;;;;1.23;0.98;;;;;;;6.03;100.00;97726.53;5037373;28;20033;-77
2023/03/27 00:30:00;;;;;;;3.10;1.23;;;;;;;6.12;100.00;97752.97;5014661;28;20036;-78
2023/03/27 00:32:26;;;;;;;1.90;1.10;;;;;;;5.92;100.00;97717.97;5038457;28;20032;-78
2023/03/27 00:34:51;;;;;;;2.03;1.00;;;;;;;5.97;100.00;97732.66;5022622;28;20025;-77
2023/03/27 00:37:16;;;;;;;0.77;0.73;;;;;;;5.99;100.00;97744.03;5027873;28;20027;-78
2023/03/27 00:39:42;;;;;;;2.53;0.70;;;;;;;6.07;100.00;97759.97;5010990;28;20026;-77
2023/03/27 00:42:12;;;;;;;0.60;0.40;;;;;;;6.11;100.00;97770.13;5026407;28;20021;-77
2023/03/27 00:44:38;;;;;;;0.10;0.10;;;;;;;5.81;100.00;97741.88;5014611;28;20017;-79
2023/03/27 00:47:06;;;;;;;0.30;0.30;;;;;;;5.77;100.00;97779.00;5016295;28;20211;-78
2023/03/27 00:49:36;;;;;;;0.45;0.22;;;;;;;5.67;100.00;97778.53;5020312;28;20058;-77
2023/03/27 00:52:04;;;;;;;0.28;0.28;;;;;;;5.58;100.00;97791.28;5023379;28;20033;-77
2023/03/27 00:54:33;;;;;;;0.32;0.20;;;;;;;5.72;100.00;97797.56;5011592;28;20383;-77
2023/03/27 00:57:04;;;;;;;0.10;0.10;;;;;;;5.63;100.00;97802.28;5048499;28;20025;-78
2023/03/27 00:59:33;;;;;;;0.57;0.30;;;;;;;5.44;100.00;97798.41;5015117;28;20052;-77
2023/03/27 01:02:01;;;;;;;0.70;0.40;;;;;;;5.15;100.00;97753.00;5006249;28;20029;-76
2023/03/27 01:04:26;;;;;;;0.90;0.45;;;;;;;5.17;100.00;97772.41;5037898;28;20474;-77
2023/03/27 01:06:54;;;;;;;0.98;0.43;;;;;;;5.24;100.00;97805.50;5030766;28;20112;-78
2023/03/27 01:09:20;;;;;;;1.42;0.50;;;;;;;5.16;100.00;97805.59;5012585;28;20502;-76
2023/03/27 01:12:07;;;;;;;0.93;0.45;;;;;;;4.88;100.00;97782.28;5014886;28;20033;-77
2023/03/27 01:14:41;;;;;;;1.38;0.77;;;;;;;4.97;100.00;97810.59;5010098;28;20896;-81
2023/03/27 01:17:51;;;;;;;1.63;0.85;;;;;;;5.07;100.00;97841.63;5022583;28;20060;-78
2023/03/27 01:20:35;;;;;;;3.47;0.77;;;;;;;4.89;100.00;97831.34;5022998;28;20049;-79
2023/03/27 01:23:20;;;;;;;1.30;0.98;;;;;;;4.86;100.00;97835.22;5025914;28;20025;-79
2023/03/27 01:26:19;;;;;;;1.30;0.80;;;;;;;4.90;100.00;97865.16;5034433;28;20067;-81
2023/03/27 01:28:57;;;;;;;1.17;0.80;;;;;;;4.71;100.00;97856.72;5037235;28;20013;-77
2023/03/27 01:31:41;;;;;;;3.50;0.90;;;;;;;4.77;100.00;97868.53;5034306;28;20030;-78
2023/03/27 01:34:58;;;;;;;2.85;0.85;;;;;;;4.69;100.00;97876.66;5017785;28;20041;-78
2023/03/27 01:37:52;;;;;;;1.60;0.98;;;;;;;4.51;100.00;97851.16;5007722;28;20036;-77
2023/03/27 01:40:20;;;;;;;2.10;1.00;;;;;;;4.58;100.00;97875.31;5017276;28;20017;-78
2023/03/27 01:42:57;;;;;;;2.95;0.93;;;;;;;4.60;100.00;97890.19;5014036;28;20385;-77
2023/03/27 01:45:47;;;;;;;1.45;0.90;;;;;;;4.64;100.00;97901.38;5013775;28;20041;-79
2023/03/27 01:48:39;;;;;;;1.50;0.93;;;;;;;4.67;100.00;97914.38;5001452;28;20033;-78
2023/03/27 01:51:15;;;;;;;2.45;1.15;;;;;;;4.63;100.00;97907.72;5016134;28;20033;-77
2023/03/27 01:53:48;;;;;;;2.20;1.10;;;;;;;4.46;100.00;97899.09;5022972;28;20069;-78
2023/03/27 01:56:25;;;;;;;2.53;1.40;;;;;;;4.64;100.00;97933.53;5034433;28;20029;-78
2023/03/27 01:58:55;;;;;;;2.50;1.30;;;;;;;4.51;100.00;97928.00;5013041;28;20017;-77
2023/03/27 02:01:27;;;;;;;3.72;1.50;;;;;;;4.61;100.00;97945.44;5033267;28;20107;-77
2023/03/27 02:03:56;;;;;;;1.95;1.55;;;;;;;4.57;100.00;97962.88;5026411;28;20112;-78
2023/03/27 02:06:40;;;;;;;3.45;1.90;;;;;;;4.48;100.00;97960.47;5021210;28;20026;-76
2023/03/27 02:09:23;;;;;;;3.05;1.65;;;;;;;4.50;100.00;97980.72;5015062;28;20051;-77
2023/03/27 02:11:55;;;;;;;2.78;1.75;;;;;;;4.43;100.00;97969.09;5017733;28;20021;-77
2023/03/27 02:14:27;;;;;;;3.63;1.50;;;;;;;4.40;100.00;97980.16;5036476;28;20064;-78
2023/03/27 02:16:57;;;;;;;2.08;1.38;;;;;;;4.25;100.00;97965.94;5037904;28;20510;-77
2023/03/27 02:19:34;;;;;;;3.13;1.27;;;;;;;4.36;100.00;97994.94;5029269;28;20459;-78
2023/03/27 02:22:00;;;;;;;3.55;1.50;;;;;;;4.30;100.00;97993.84;5046903;28;20029;-77
2023/03/27 02:24:25;;;;;;;3.63;1.42;;;;;;;4.26;100.00;97995.19;5033855;28;20368;-77
2023/03/27 02:27:05;;;;;;;3.90;1.73;;;;;;;4.15;100.00;97991.13;5026512;28;20029;-78
2023/03/27 02:29:34;;;;;;;1.77;1.38;;;;;;;4.33;100.00;98014.88;5037670;28;20087;-77
2023/03/27 02:32:09;;;;;;;1.63;1.00;;;;;;;4.36;100.00;98022.53;5034633;28;20029;-78
2023/03/27 02:34:34;;;;;;;6.00;1.40;;;;;;;4.32;100.00;98020.41;5017258;28;20043;-79
2023/03/27 02:37:27;;;;;;;2.40;1.40;;;;;;;4.17;100.00;98007.03;5019051;28;20116;-78
2023/03/27 02:40:23;;;;;;;2.38;1.30;;;;;;;4.39;100.00;98046.28;5020671;28;20156;-77
2023/03/27 02:43:15;;;;;;;3.88;1.20;;;;;;;4.38;100.00;98051.84;5013350;28;20049;-78
2023/03/27 02:45:49;;;;;;;3.13;1.35;;;;;;;4.40;100.00;98052.47;5007344;28;20021;-78
2023/03/27 02:48:18;;;;;;;3.55;1.20;;;;;;;4.32;100.00;98052.53;5023464;28;20029;-78
2023/03/27 02:50:48;;;;;;;3.08;1.00;;;;;;;4.27;100.00;98055.78;5017637;28;20025;-77
2023/03/27 02:53:18;;;;;;;3.58;1.15;;;;;;;4.07;100.00;98041.25;5017043;28;20040;-78
2023/03/27 02:55:50;;;;;;;3.70;1.20;;;;;;;4.13;100.00;98070.78;5033314;28;20028;-77
2023/03/27 02:58:22;;;;;;;3.50;1.40;;;;;;;4.03;100.00;98074.72;5023750;28;20026;-77
2023/03/27 03:00:49;;;;;;;6.57;1.10;;;;;;;3.91;100.00;98077.81;5017365;28;20091;-77
2023/03/27 03:03:30;;;;;;;3.85;1.83;;;;;;;3.96;100.00;98104.06;5015977;28;20080;-77
2023/03/27 03:05:56;;;;;;;9.65;1.27;;;;;;;3.67;100.00;98065.47;5015782;28;20729;-77
2023/03/27 03:08:22;;;;;;;6.72;1.23;;;;;;;3.88;100.00;98123.69;5016996;28;20033;-78
2023/03/27 03:10:48;;;;;;;6.75;1.20;;;;;;;3.82;100.00;98121.69;5021957;28;20055;-78
2023/03/27 03:13:15;;;;;;;6.30;1.45;;;;;;;3.76;100.00;98133.13;5025263;28;20092;-77
2023/03/27 03:15:41;;;;;;;4.05;1.30;;;;;;;3.70;100.00;98133.81;5013167;28;20052;-77
2023/03/27 03:18:06;;;;;;;8.75;1.13;;;;;;;3.52;100.00;98112.69;5033589;28;20032;-78
2023/03/27 03:20:33;;;;;;;4.22;1.30;;;;;;;3.63;100.00;98156.94;5017261;28;20499;-78
2023/03/27 03:23:00;;;;;;;9.00;1.33;;;;;;;3.47;100.00;98139.13;5018624;28;20032;-78
2023/03/27 03:33:13;;;;;;;8.90;1.77;;;;;;;3.45;100.00;98183.91;4981558;28;20096;-79
2023/03/27 03:46:50;;;;;;;6.07;1.10;;;;;;;3.31;100.00;98217.56;4949566;29;20427;-82
2023/03/27 03:50:02;;;;;;;11.05;1.30;;;;;;;3.30;100.00;98226.56;4933233;29;20039;-84
2023/03/27 03:59:41;;;;;;;5.85;1.08;;;;;;;3.12;100.00;98239.31;4978284;28;20033;-84
2023/03/27 04:02:10;;;;;;;8.70;1.45;;;;;;;3.07;100.00;98255.88;4947414;28;20038;-78
2023/03/27 04:04:36;;;;;;;7.97;1.23;;;;;;;2.84;100.00;98223.66;4963698;28;20035;-77
2023/03/27 04:07:01;;;;;;;5.53;1.08;;;;;;;2.99;100.00;98250.53;4999977;28;20469;-77
2023/03/27 04:09:27;;;;;;;2.20;1.13;;;;;;;3.03;100.00;98262.56;5035379;28;20060;-78
2023/03/27 04:11:52;;;;;;;5.53;1.20;;;;;;;2.91;100.00;98240.69;5015548;28;20035;-78
2023/03/27 04:21:01;;;;;;;4.40;0.90;;;;;;;3.14;100.00;98310.31;5039328;28;20094;-79
2023/03/27 04:24:12;;;;;;;6.97;1.90;;;;;;;3.03;100.00;98302.63;5047809;28;20033;-84
2023/03/27 04:27:50;;;;;;;9.75;1.83;;;;;;;2.97;100.00;98319.34;5037050;28;20094;-84
2023/03/27 04:40:24;;;;;;;5.28;1.25;;;;;;;1.84;100.00;98253.06;5069338;28;20117;-78
2023/03/27 04:42:49;;;;;;;7.80;1.30;;;;;;;2.08;100.00;98296.84;5033410;28;20116;-77
2023/03/27 04:45:17;;;;;;;5.03;1.17;;;;;;;2.26;100.00;98342.94;5046281;28;20126;-80
2023/03/27 04:48:39;;;;;;;6.03;1.52;;;;;;;2.35;100.00;98368.63;5009627;28;20029;-84
2023/03/27 04:51:25;;;;;;;6.95;1.30;;;;;;;2.29;100.00;98371.97;4998466;28;20049;-76
2023/03/27 04:53:50;;;;;;;9.20;1.30;;;;;;;2.21;100.00;98377.28;4971830;28;20031;-76
2023/03/27 04:56:16;;;;;;;5.13;1.17;;;;;;;2.04;100.00;98359.50;4992107;28;20044;-76
2023/03/27 04:58:45;;;;;;;6.05;1.63;;;;;;;2.05;100.00;98387.88;5015542;28;20391;-76
2023/03/27 05:01:11;;;;;;;4.43;1.10;;;;;;;2.17;100.00;98410.59;5034634;28;20095;-76
2023/03/27 05:03:37;;;;;;;18.23;2.03;;;;;;;2.09;100.00;98400.72;5034142;28;20108;-76
2023/03/27 05:06:03;;;;;;;5.55;1.33;;;;;;;2.10;100.00;98397.06;5019817;28;20104;-76
2023/03/27 05:08:29;;;;;;;5.90;1.48;;;;;;;2.34;100.00;98438.22;5010171;28;20060;-73
2023/03/27 05:10:55;;;;;;;3.45;1.17;;;;;;;2.35;100.00;98438.03;5003323;28;20076;-75
2023/03/27 05:13:20;;;;;;;7.03;1.77;;;;;;;2.38;100.00;98428.88;5012051;28;20468;-76
2023/03/27 05:15:45;;;;;;;12.23;1.20;;;;;;;2.21;100.00;98403.13;5010229;28;20026;-77
2023/03/27 05:18:11;;;;;;;3.70;1.02;;;;;;;2.45;100.00;98443.25;5027528;28;20032;-76
2023/03/27 05:20:36;;;;;;;11.98;1.13;;;;;;;2.48;100.00;98458.13;5025340;28;20520;-76
2023/03/27 05:23:02;;;;;;;5.15;1.20;;;;;;;2.48;100.00;98466.13;5014540;28;20037;-75
2023/03/27 05:25:29;;;;;;;6.90;1.20;;;;;;;2.46;100.00;98466.28;5016013;28;20025;-76
2023/03/27 05:27:55;;;;;;;6.57;1.05;;;;;;;2.49;100.00;98481.16;5033251;28;20028;-75
2023/03/27 05:30:22;;;;;;;6.28;1.15;;;;;;;2.51;100.00;98484.50;5008167;28;20025;-76
2023/03/27 05:32:58;;;;;;;5.53;1.40;;;;;;;2.50;100.00;98485.50;5021207;28;20010;-82
2023/03/27 05:38:46;;;;;;;8.02;2.08;;;;;;;2.53;100.00;98504.72;5040713;28;20068;-78
2023/03/27 05:41:14;;;;;;;10.43;1.27;;;;;;;2.40;100.00;98494.47;5023575;28;20029;-78
2023/03/27 05:43:40;;;;;;;7.88;0.95;;;;;;;2.55;100.00;98524.09;5022259;28;20123;-77
2023/03/27 05:46:06;;;;;;;8.23;1.23;;;;;;;2.66;100.00;98530.97;5044798;28;20403;-78
2023/03/27 05:48:32;;;;;;;6.03;1.05;;;;;;;2.58;100.00;98533.63;5041921;28;20115;-76
2023/03/27 05:50:57;;;;;;;3.35;1.00;;;;;;;2.61;100.00;98533.28;5010885;28;20060;-78
2023/03/27 05:53:23;;;;;;;6.05;1.10;;;;;;;2.56;100.00;98525.75;5046949;28;20044;-77
2023/03/27 05:55:48;;;;;;;12.23;1.60;;;;;;;2.49;100.00;98518.53;5034872;28;20064;-78
2023/03/27 05:58:14;;;;;;;8.75;1.40;;;;;;;2.71;100.00;98555.38;5041940;28;20022;-77
2023/03/27 06:00:41;;;;;;;8.30;1.25;;;;;;;2.86;100.00;98574.31;5018080;28;20034;-78
2023/03/27 06:03:08;;;;;;;4.47;1.00;;;;;;;2.89;100.00;98575.84;5003768;28;20028;-75
2023/03/27 06:05:34;;;;;;;4.00;1.00;;;;;;;2.81;100.00;98561.44;5022268;28;20071;-76
2023/03/27 06:08:01;;;;;;;6.80;1.13;;;;;;;2.88;100.00;98571.47;5015968;28;20021;-76
2023/03/27 06:10:28;;;;;;;10.88;1.23;;;;;;;2.84;100.00;98581.66;5017456;28;20025;-78
2023/03/27 06:13:05;;;;;;;5.95;0.98;;;;;;;2.81;100.00;98582.81;5025875;28;20025;-77
2023/03/27 06:16:09;;;;;;;14.43;1.48;;;;;;;2.94;100.00;98605.59;5027361;28;20017;-86
2023/03/27 06:18:37;;;;;;;9.23;1.30;;;;;;;2.96;100.00;98611.59;5031046;28;20037;-80
2023/03/27 06:21:02;;;;;;;6.90;1.30;;;;;;;2.96;100.00;98587.53;5005255;28;20540;-78
2023/03/27 06:23:28;;;;;;;10.48;1.10;;;;;;;3.14;100.00;98630.22;5017326;28;20033;-79
2023/03/27 06:25:53;;;;;;;12.73;2.35;;;;;;;3.12;100.00;98633.06;5018723;28;20388;-79
2023/03/27 06:28:19;;;;;;;5.10;1.15;;;;;;;2.92;100.00;98605.75;5036014;28;20739;-77
2023/03/27 06:30:47;;;;;;;5.68;1.40;;;;;;;3.04;100.00;98638.38;5017077;28;20072;-78
2023/03/27 06:33:14;;;;;;;5.93;1.02;;;;;;;3.03;100.00;98628.69;5038586;28;20051;-78
2023/03/27 06:35:40;;;;;;;8.30;1.50;;;;;;;3.14;100.00;98660.47;5022984;28;20503;-78
2023/03/27 06:38:06;;;;;;;12.25;1.48;;;;;;;3.02;100.00;98648.38;5021935;28;20056;-78
2023/03/27 06:40:34;;;;;;;6.63;1.10;;;;;;;2.98;100.00;98641.66;5019168;28;20017;-79
2023/03/27 06:43:07;;;;;;;5.18;1.17;;;;;;;3.25;100.00;98678.09;5024217;28;20030;-78
2023/03/27 06:45:37;;;;;;;6.15;1.10;;;;;;;3.29;100.00;98682.94;5029445;28;20075;-79
2023/03/27 06:48:03;;;;;;;4.80;0.88;;;;;;;3.05;100.00;98656.09;5025500;28;20022;-78
2023/03/27 06:50:30;;;;;;;9.75;1.70;;;;;;;3.27;100.00;98689.44;5018073;28;20033;-79
2023/03/27 06:52:56;;;;;;;11.05;1.90;;;;;;;3.26;100.00;98696.63;5016661;28;20025;-78
2023/03/27 06:55:25;;;;;;;9.90;1.63;;;;;;;3.44;100.00;98712.59;5031321;28;20071;-79
2023/03/27 06:57:52;;;;;;;7.75;1.58;;;;;;;3.35;100.00;98676.09;5021279;28;20498;-78
2023/03/27 07:00:22;;;;;;;11.43;1.80;;;;;;;3.66;100.00;98700.47;5029042;28;20033;-79
2023/03/27 07:02:52;;;;;;;5.70;1.20;;;;;;;3.94;100.00;98711.75;5024363;28;20093;-77
2023/03/27 07:05:17;;;;;;;12.55;1.30;;;;;;;4.26;100.00;98706.63;5025636;28;20033;-79
2023/03/27 07:07:43;;;;;;;7.82;1.25;;;;;;;4.38;100.00;98721.41;5014361;28;20028;-79
2023/03/27 07:10:09;;;;;;;6.22;1.23;;;;;;;4.02;100.00;98715.47;5039974;28;20056;-78
2023/03/27 07:12:35;;;;;;;5.88;1.50;;;;;;;4.12;100.00;98746.44;5016802;28;20025;-77
2023/03/27 07:15:00;;;;;;;3.63;1.00;;;;;;;4.04;100.00;98734.88;5030672;28;20116;-78
2023/03/27 07:17:26;;;;;;;8.27;1.00;;;;;;;4.41;100.00;98729.09;5007532;28;20100;-78
2023/03/27 07:19:52;;;;;;;9.10;1.20;;;;;;;5.07;100.00;98767.44;5035105;28;20052;-78
2023/03/27 07:22:17;;;;;;;6.25;1.02;;;;;;;5.25;100.00;98727.03;5035603;28;20064;-78
2023/03/27 07:24:43;;;;;;;8.05;1.67;;;;;;;5.53;100.00;98756.97;5017254;28;20017;-78
2023/03/27 07:27:08;;;;;;;6.00;1.52;;;;;;;5.87;100.00;98771.97;5023483;28;20100;-78
2023/03/27 07:29:35;;;;;;;7.93;0.85;;;;;;;5.85;100.00;98769.44;5014498;28;20026;-78
2023/03/27 07:32:01;;;;;;;5.10;0.80;;;;;;;6.04;100.00;98778.13;5012398;28;20029;-78
2023/03/27 07:34:27;;;;;;;4.82;0.95;;;;;;;6.21;100.00;98782.41;5034693;28;20156;-78
2023/03/27 07:36:52;;;;;;;6.07;1.02;;;;;;;6.18;100.00;98780.06;5033394;28;20041;-78
2023/03/27 07:39:17;;;;;;;4.82;1.25;;;;;;;6.23;100.00;98771.47;5040428;28;20044;-78
2023/03/27 07:41:42;;;;;;;3.67;1.05;;;;;;;6.25;100.00;98762.22;5016046;28;20029;-78
2023/03/27 07:44:08;;;;;;;6.45;1.40;;;;;;;6.86;100.00;98777.59;5017342;28;20045;-78
2023/03/27 07:46:33;;;;;;;6.57;1.17;;;;;;;6.92;100.00;98791.19;5041223;28;20044;-78
2023/03/27 07:48:59;;;;;;;3.15;0.82;;;;;;;7.08;100.00;98790.22;5012835;28;20036;-79
2023/03/27 07:51:24;;;;;;;3.40;0.80;;;;;;;7.37;100.00;98797.50;5013211;28;20034;-84
2023/03/27 07:53:55;;;;;;;6.45;1.00;;;;;;;7.82;100.00;98773.31;5019310;28;20025;-77
2023/03/27 07:56:22;;;;;;;5.80;1.10;;;;;;;8.08;98.00;98784.44;5024933;28;20024;-78
2023/03/27 07:58:47;;;;;;;7.07;1.38;;;;;;;8.60;93.83;98808.72;5015576;28;20023;-78
2023/03/27 08:01:13;;;;;;;5.05;0.82;;;;;;;8.77;86.04;98796.66;5017563;28;20089;-78
2023/03/27 08:03:40;;;;;;;6.03;0.95;;;;;;;9.08;78.17;98809.81;5020628;28;20458;-78
2023/03/27 08:06:06;;;;;;;8.32;1.08;;;;;;;9.87;69.96;98797.94;5007184;28;20030;-78
2023/03/27 08:08:33;;;;;;;6.00;1.10;;;;;;;9.66;67.75;98815.91;5011556;28;20048;-79
2023/03/27 08:11:01;;;;;;;4.43;1.40;;;;;;;9.60;67.10;98832.06;5026950;28;20564;-78
2023/03/27 08:13:27;;;;;;;3.13;0.77;;;;;;;10.45;61.74;98813.84;5015875;28;20037;-78
2023/03/27 08:16:01;;;;;;;10.80;2.05;;;;;;;11.98;58.53;98827.59;5015666;28;20025;-78
2023/03/27 08:18:30;;;;;;;5.95;1.13;;;;;;;13.53;54.79;98811.94;5017596;28;20462;-84
2023/03/27 08:20:56;;;;;;;3.47;0.70;;;;;;;12.36;55.23;98840.41;5016925;28;20120;-79
2023/03/27 08:23:26;;;;;;;5.85;0.80;;;;;;;13.79;53.01;98821.75;5053033;28;20029;-81
2023/03/27 08:25:52;;;;;;;3.78;0.93;;;;;;;15.78;47.64;98829.22;5025472;28;20030;-83
2023/03/27 08:28:17;;;;;;;6.15;0.82;;;;;;;18.08;42.29;98812.84;5043730;28;20522;-80
2023/03/27 08:30:42;;;;;;;4.50;0.93;;;;;;;19.74;39.41;98829.81;5050524;28;20025;-82
2023/03/27 08:33:08;;;;;;;2.10;0.57;;;;;;;20.04;36.93;98825.63;5025151;28;20029;-76
2023/03/27 08:35:34;;;;;;;7.78;0.80;;;;;;;21.31;35.30;98813.53;5018821;28;20021;-75
2023/03/27 08:38:00;;;;;;;4.75;1.00;;;;;;;23.71;33.38;98845.03;5034998;28;20063;-74
2023/03/27 08:40:29;;;;;;;4.65;1.00;;;;;;;22.28;33.78;98855.66;5013983;28;20025;-74
2023/03/27 08:43:00;;;;;;;4.82;0.80;;;;;;;22.62;33.64;98848.69;5022328;28;20183;-74
2023/03/27 08:45:31;;;;;;;4.90;0.90;;;;;;;19.69;36.56;98865.47;5048836;28;20025;-76
2023/03/27 08:48:06;;;;;;;4.47;0.80;;;;;;;18.92;38.30;98870.16;5046636;28;20037;-75
2023/03/27 08:50:43;;;;;;;3.80;0.85;;;;;;;20.23;35.47;98870.81;5021798;28;20260;-75
2023/03/27 08:53:38;;;;;;;5.13;1.10;;;;;;;20.30;35.54;98878.81;5012744;28;20021;-76
2023/03/27 08:56:04;;;;;;;4.93;0.70;;;;;;;22.65;33.28;98884.78;5027319;28;20049;-76
2023/03/27 08:58:29;;;;;;;5.75;0.82;;;;;;;22.83;32.69;98875.09;5018882;28;20102;-76
2023/03/27 09:01:14;;;;;;;2.63;0.85;;;;;;;22.20;32.74;98886.56;5013090;28;20022;-75
2023/03/27 09:03:51;;;;;;;5.50;0.85;;;;;;;23.80;31.57;98896.66;5018614;28;20112;-76
2023/03/27 09:07:11;;;;;;;4.18;0.80;;;;;;;25.88;30.45;98887.38;5036812;28;20467;-76
2023/03/27 09:10:16;;;;;;;3.25;0.73;;;;;;;27.89;27.56;98889.44;4972450;28;20027;-76
2023/03/27 09:13:09;;;;;;;5.63;1.15;;;;;;;29.23;26.90;98884.72;4991894;28;20222;-74
2023/03/27 09:15:51;;;;;;;5.15;1.10;;;;;;;29.38;26.45;98885.41;5010432;28;20469;-75
2023/03/27 09:18:26;;;;;;;3.08;1.17;;;;;;;28.57;26.34;98884.66;5030376;28;20482;-75
2023/03/27 09:20:55;;;;;;;6.35;1.00;;;;;;;25.77;27.95;98897.75;5034135;28;20111;-75
2023/03/27 09:23:32;;;;;;;4.65;1.00;;;;;;;23.83;29.52;98911.84;5015364;28;20330;-75
2023/03/27 09:26:06;;;;;;;3.40;0.90;;;;;;;20.98;32.03;98921.00;5004805;28;20021;-75
2023/03/27 09:28:44;;;;;;;5.10;1.10;;;;;;;22.33;31.13;98901.69;5026897;28;20032;-75
2023/03/27 09:31:23;;;;;;;5.07;1.00;;;;;;;22.04;31.92;98915.19;5036074;28;20034;-75
2023/03/27 09:33:49;;;;;;;6.03;1.00;;;;;;;19.10;34.42;98929.31;5017251;28;20087;-77
2023/03/27 09:36:14;;;;;;;4.97;0.88;;;;;;;16.47;38.00;98939.69;5032828;28;20116;-75
2023/03/27 09:38:49;;;;;;;4.85;1.13;;;;;;;16.79;38.42;98929.22;5010998;28;20167;-76
2023/03/27 09:41:21;;;;;;;10.70;1.00;;;;;;;20.53;34.92;98924.31;5020034;28;20060;-76
2023/03/27 09:43:46;;;;;;;3.90;0.90;;;;;;;18.08;35.54;98950.59;5024022;28;20022;-76
2023/03/27 09:46:18;;;;;;;4.45;0.77;;;;;;;15.83;38.41;98954.00;5036768;28;20036;-78
2023/03/27 09:49:00;;;;;;;4.97;0.90;;;;;;;14.38;40.98;98943.81;5026733;28;20029;-79
2023/03/27 09:51:39;;;;;;;4.78;0.75;;;;;;;13.44;42.47;98964.63;5026194;28;20022;-82
2023/03/27 09:54:06;;;;;;;5.30;0.90;;;;;;;17.08;39.18;98939.16;5031915;28;20084;-77
2023/03/27 09:56:38;;;;;;;3.67;1.10;;;;;;;16.28;39.82;98948.00;5039416;28;20029;-74
2023/03/27 09:59:10;;;;;;;2.47;0.57;;;;;;;17.99;37.00;98916.47;5038671;28;20092;-79
2023/03/27 10:01:37;;;;;;;6.20;1.50;;;;;;;22.52;32.17;98940.53;5029046;28;20076;-82
2023/03/27 10:04:12;;;;;;;4.03;0.88;;;;;;;25.12;30.22;98931.59;5022230;28;20057;-78
2023/03/27 10:07:00;;;;;;;7.68;0.77;;;;;;;25.61;29.68;98927.66;5025147;28;20017;-82
2023/03/27 10:09:29;;;;;;;3.13;0.82;;;;;;;23.70;30.26;98927.09;5022390;28;20017;-81
2023/03/27 10:12:16;;;;;;;3.53;1.00;;;;;;;20.45;32.25;98950.38;5022554;28;20025;-81
2023/03/27 10:14:47;;;;;;;5.18;1.00;;;;;;;19.72;33.85;98952.78;5023514;28;20021;-78
2023/03/27 10:17:29;;;;;;;3.33;0.70;;;;;;;19.22;34.17;98973.06;5019060;28;20026;-81
2023/03/27 10:20:04;;;;;;;4.30;0.80;;;;;;;19.08;34.78;98974.53;5050086;28;20555;-79
2023/03/27 10:22:32;;;;;;;6.00;1.13;;;;;;;21.55;33.07;98946.81;5020854;28;20036;-80
2023/03/27 10:25:00;;;;;;;3.35;1.20;;;;;;;20.43;33.43;98927.00;5017296;28;20475;-76
2023/03/27 10:27:30;;;;;;;8.40;1.40;;;;;;;21.42;32.10;98958.34;5043986;28;20159;-76
2023/03/27 10:29:56;;;;;;;4.90;1.00;;;;;;;21.95;31.63;98949.91;5017167;28;20048;-76
2023/03/27 10:32:42;;;;;;;6.55;0.80;;;;;;;21.14;32.10;98940.31;5027514;28;20017;-74
2023/03/27 10:35:40;;;;;;;4.57;1.25;;;;;;;23.56;29.92;98967.53;5046119;28;20021;-74
2023/03/27 10:38:14;;;;;;;6.20;1.17;;;;;;;26.12;29.18;98951.00;5026529;28;20036;-73
2023/03/27 10:40:41;;;;;;;3.55;0.90;;;;;;;22.91;29.87;98964.72;5034524;28;20322;-73
2023/03/27 10:43:15;;;;;;;3.92;0.82;;;;;;;18.74;34.08;98977.34;5025505;28;20025;-74
2023/03/27 10:45:50;;;;;;;3.08;1.17;;;;;;;17.75;36.03;98968.59;5035209;28;20049;-74
2023/03/27 10:48:35;;;;;;;2.60;0.60;;;;;;;20.49;34.29;98969.94;5032150;28;20140;-75
2023/03/27 10:51:05;;;;;;;5.90;1.10;;;;;;;23.17;30.99;98959.97;5009084;28;20025;-73
2023/03/27 10:53:40;;;;;;;3.22;0.80;;;;;;;21.59;31.33;98972.72;5031933;28;20029;-75
2023/03/27 10:56:09;;;;;;;3.25;0.60;;;;;;;22.40;30.47;98973.94;5031924;28;20494;-74
2023/03/27 10:58:44;;;;;;;;;;;;;;;21.53;31.35;98978.47;5012940;28;20108;-74
2023/03/27 11:01:33;;;;;;;3.38;0.80;;;;;;;24.75;29.47;98976.59;5031496;28;19920;-74
2023/03/27 11:04:09;;;;;;;4.03;1.00;;;;;;;25.22;27.88;98970.28;5022031;28;20065;-74
2023/03/27 11:06:40;;;;;;;2.30;0.68;;;;;;;21.55;29.44;98977.09;5025402;28;20025;-73
2023/03/27 11:09:22;;;;;;;2.50;0.68;;;;;;;23.41;29.61;98988.56;5012014;28;20490;-74
2023/03/27 11:11:57;;;;;;;3.65;0.70;;;;;;;24.77;28.34;98963.28;5015267;28;20029;-73
2023/03/27 11:14:28;;;;;;;6.35;0.90;;;;;;;21.76;30.70;98980.72;5032052;28;20095;-75
2023/03/27 11:16:59;;;;;;;6.18;1.13;;;;;;;18.06;35.05;98980.09;5008458;28;20032;-74
2023/03/27 11:19:36;;;;;;;5.90;1.00;;;;;;;14.96;39.04;98999.78;5028176;28;20101;-74
2023/03/27 11:22:10;;;;;;;5.25;1.10;;;;;;;13.52;42.92;99005.19;5009582;28;20026;-74
2023/03/27 11:24:44;;;;;;;2.63;0.80;;;;;;;13.06;43.17;98998.03;5015969;28;20030;-74
2023/03/27 11:27:33;;;;;;;5.50;0.90;;;;;;;12.62;43.73;99016.72;5031176;28;20026;-74
2023/03/27 11:30:19;;;;;;;3.40;1.00;;;;;;;15.38;39.89;98997.19;5011912;28;20032;-74
2023/03/27 11:32:51;;;;;;;4.43;1.08;;;;;;;19.96;34.45;98988.16;5027879;28;20036;-73
2023/03/27 11:35:23;;;;;;;2.45;0.63;;;;;;;23.64;29.19;98986.25;5032425;28;20021;-74
2023/03/27 11:37:58;;;;;;;2.25;0.70;;;;;;;23.81;28.88;98995.00;5027220;28;20033;-74
2023/03/27 11:40:29;;;;;;;2.67;0.68;;;;;;;25.59;28.69;98994.44;5035593;28;20021;-74
2023/03/27 11:42:55;;;;;;;4.28;0.77;;;;;;;23.34;29.46;98990.81;5009610;28;20056;-74
2023/03/27 11:45:27;;;;;;;3.17;0.68;;;;;;;23.53;29.72;98998.47;5012090;28;20034;-74
2023/03/27 11:48:01;;;;;;;3.50;1.20;;;;;;;23.95;29.71;99009.03;5026507;28;20444;-74
2023/03/27 11:50:49;;;;;;;5.28;0.80;;;;;;;23.90;29.80;99017.34;5007211;28;20030;-74
2023/03/27 11:53:42;;;;;;;3.03;0.70;;;;;;;21.17;31.18;99012.16;5012595;28;20061;-74
2023/03/27 11:56:53;;;;;;;3.75;0.70;;;;;;;20.41;32.73;99012.47;5030816;28;20025;-74
2023/03/27 11:59:42;;;;;;;2.92;0.60;;;;;;;23.84;30.22;99021.25;4992541;28;20085;-74
2023/03/27 12:02:17;;;;;;;6.05;0.73;;;;;;;26.48;28.63;99008.69;5013129;28;20036;-74
2023/03/27 12:05:09;;;;;;;4.55;0.85;;;;;;;25.70;28.27;99019.25;5020963;28;20025;-73
2023/03/27 12:07:53;;;;;;;2.67;0.63;;;;;;;24.93;28.13;99017.34;5006689;28;20427;-73
2023/03/27 12:10:31;;;;;;;5.10;0.50;;;;;;;21.46;30.42;99020.03;5015510;28;20096;-73
2023/03/27 12:13:18;;;;;;;4.03;0.88;;;;;;;18.30;34.69;99030.06;5030305;28;20033;-78
2023/03/27 12:15:56;;;;;;;2.67;0.65;;;;;;;16.31;37.98;99037.63;5034031;28;20021;-76
2023/03/27 12:18:43;;;;;;;7.03;0.70;;;;;;;16.50;38.24;99032.06;5025842;28;20045;-82
2023/03/27 12:21:33;;;;;;;1.52;0.50;;;;;;;20.03;34.85;99027.22;5041452;28;20479;-76
2023/03/27 12:24:26;;;;;;;3.75;0.75;;;;;;;23.11;30.90;99016.31;5011878;28;20045;-76
2023/03/27 12:27:10;;;;;;;3.83;1.00;;;;;;;20.73;31.92;99022.63;4999975;28;20109;-76
2023/03/27 12:29:48;;;;;;;7.05;0.85;;;;;;;18.59;34.84;99017.13;5002283;28;20028;-77
2023/03/27 12:32:51;;;;;;;3.30;0.65;;;;;;;17.13;35.59;99023.16;5014849;28;20025;-77
2023/03/27 12:35:20;;;;;;;4.43;0.77;;;;;;;16.63;36.79;99010.81;5029533;28;20039;-81
2023/03/27 12:37:52;;;;;;;4.40;0.70;;;;;;;15.48;37.62;99038.38;5020912;28;20669;-79
2023/03/27 12:40:27;;;;;;;4.70;0.50;;;;;;;14.51;39.42;99024.53;5019143;28;20120;-79
2023/03/27 12:43:20;;;;;;;6.30;0.90;;;;;;;13.80;41.71;99021.91;5042600;28;20021;-79
2023/03/27 12:46:11;;;;;;;4.45;1.02;;;;;;;12.94;42.86;99050.31;5011059;28;20394;-80
2023/03/27 12:48:51;;;;;;;4.05;0.68;;;;;;;12.56;42.33;99042.00;5042498;28;20010;-80